sensor_id;sensor_type;location;lat;lon;timestamp;temperature;humidity
11840;DHT22;5979;50.800;4.904;2022-11-20T00:02:01;4.40;99.90
11840;DHT22;5979;50.800;4.904;2022-11-20T00:04:26;4.50;99.90
11840;DHT22;5979;50.800;4.904;2022-11-20T00:06:52;4.50;99.90
11840;DHT22;5979;50.800;4.904;2022-11-20T00:09:18;4.50;99.90
11840;DHT22;5979;50.800;4.904;2022-11-20T00:11:43;4.60;99.90
11840;DHT22;5979;50.800;4.904;2022-11-20T00:14:09;4.50;99.90
11840;DHT22;5979;50.800;4.904;2022-11-20T00:16:35;4.50;99.90
11840;DHT22;5979;50.800;4.904;2022-11-20T00:19:01;4.40;99.90
11840;DHT22;5979;50.800;4.904;2022-11-20T00:21:28;4.40;99.90
11840;DHT22;5979;50.800;4.904;2022-11-20T00:23:55;4.50;99.90
11840;DHT22;5979;50.800;4.904;2022-11-20T00:26:22;4.50;99.90
11840;DHT22;5979;50.800;4.904;2022-11-20T00:28:53;4.50;99.90
11840;DHT22;5979;50.800;4.904;2022-11-20T00:31:19;4.40;99.90
11840;DHT22;5979;50.800;4.904;2022-11-20T00:33:45;4.40;99.90
11840;DHT22;5979;50.800;4.904;2022-11-20T00:36:32;4.40;99.90
11840;DHT22;5979;50.800;4.904;2022-11-20T00:38:58;4.30;99.90
11840;DHT22;5979;50.800;4.904;2022-11-20T00:41:26;4.30;99.90
11840;DHT22;5979;50.800;4.904;2022-11-20T00:43:53;4.30;99.90
11840;DHT22;5979;50.800;4.904;2022-11-20T00:46:22;4.30;99.90
11840;DHT22;5979;50.800;4.904;2022-11-20T00:48:48;4.30;99.90
11840;DHT22;5979;50.800;4.904;2022-11-20T00:51:16;4.30;99.90
11840;DHT22;5979;50.800;4.904;2022-11-20T00:53:42;4.30;99.90
11840;DHT22;5979;50.800;4.904;2022-11-20T00:56:11;4.30;99.90
11840;DHT22;5979;50.800;4.904;2022-11-20T00:58:39;4.30;99.90
11840;DHT22;5979;50.800;4.904;2022-11-20T01:01:17;4.30;99.90
11840;DHT22;5979;50.800;4.904;2022-11-20T01:03:46;4.40;99.90
11840;DHT22;5979;50.800;4.904;2022-11-20T01:06:13;4.40;99.90
11840;DHT22;5979;50.800;4.904;2022-11-20T01:08:39;4.40;99.90
11840;DHT22;5979;50.800;4.904;2022-11-20T01:11:17;4.40;99.90
11840;DHT22;5979;50.800;4.904;2022-11-20T01:13:44;4.40;99.90
11840;DHT22;5979;50.800;4.904;2022-11-20T01:18:48;4.40;99.90
11840;DHT22;5979;50.800;4.904;2022-11-20T01:21:17;4.40;99.90
11840;DHT22;5979;50.800;4.904;2022-11-20T01:23:44;4.40;99.90
11840;DHT22;5979;50.800;4.904;2022-11-20T01:26:13;4.40;99.90
11840;DHT22;5979;50.800;4.904;2022-11-20T01:28:40;4.40;99.90
11840;DHT22;5979;50.800;4.904;2022-11-20T01:31:17;4.40;99.90
11840;DHT22;5979;50.800;4.904;2022-11-20T01:33:44;4.40;99.90
11840;DHT22;5979;50.800;4.904;2022-11-20T01:36:11;4.40;99.90
11840;DHT22;5979;50.800;4.904;2022-11-20T01:38:37;4.40;99.90
11840;DHT22;5979;50.800;4.904;2022-11-20T01:41:03;4.40;99.90
11840;DHT22;5979;50.800;4.904;2022-11-20T01:43:30;4.50;99.90
11840;DHT22;5979;50.800;4.904;2022-11-20T01:48:39;4.50;99.90
11840;DHT22;5979;50.800;4.904;2022-11-20T01:54:18;4.60;99.90
11840;DHT22;5979;50.800;4.904;2022-11-20T01:56:46;4.60;99.90
11840;DHT22;5979;50.800;4.904;2022-11-20T01:59:15;4.60;99.90
11840;DHT22;5979;50.800;4.904;2022-11-20T02:01:41;4.60;99.90
11840;DHT22;5979;50.800;4.904;2022-11-20T02:04:08;4.60;99.90
11840;DHT22;5979;50.800;4.904;2022-11-20T02:09:17;4.60;99.90
11840;DHT22;5979;50.800;4.904;2022-11-20T02:11:42;4.60;99.90
11840;DHT22;5979;50.800;4.904;2022-11-20T02:14:08;4.60;99.90
11840;DHT22;5979;50.800;4.904;2022-11-20T02:16:43;4.60;99.90
11840;DHT22;5979;50.800;4.904;2022-11-20T02:19:36;4.60;99.90
11840;DHT22;5979;50.800;4.904;2022-11-20T02:22:20;4.70;99.90
11840;DHT22;5979;50.800;4.904;2022-11-20T02:24:48;4.70;99.90
11840;DHT22;5979;50.800;4.904;2022-11-20T02:27:15;4.60;99.90
11840;DHT22;5979;50.800;4.904;2022-11-20T02:29:58;4.60;99.90
11840;DHT22;5979;50.800;4.904;2022-11-20T02:32:33;4.60;99.90
11840;DHT22;5979;50.800;4.904;2022-11-20T02:35:07;4.60;99.90
11840;DHT22;5979;50.800;4.904;2022-11-20T02:37:36;4.70;99.90
11840;DHT22;5979;50.800;4.904;2022-11-20T02:40:02;4.70;99.90
11840;DHT22;5979;50.800;4.904;2022-11-20T02:42:28;4.70;99.90
11840;DHT22;5979;50.800;4.904;2022-11-20T02:44:54;4.70;99.90
11840;DHT22;5979;50.800;4.904;2022-11-20T02:47:19;4.80;99.90
11840;DHT22;5979;50.800;4.904;2022-11-20T02:49:45;4.80;99.90
11840;DHT22;5979;50.800;4.904;2022-11-20T02:52:11;4.70;99.90
11840;DHT22;5979;50.800;4.904;2022-11-20T02:54:37;4.70;99.90
11840;DHT22;5979;50.800;4.904;2022-11-20T02:57:02;4.70;99.90
11840;DHT22;5979;50.800;4.904;2022-11-20T02:59:28;4.70;99.90
11840;DHT22;5979;50.800;4.904;2022-11-20T03:01:54;4.70;99.90
11840;DHT22;5979;50.800;4.904;2022-11-20T03:04:19;4.70;99.90
11840;DHT22;5979;50.800;4.904;2022-11-20T03:06:45;4.70;99.90
11840;DHT22;5979;50.800;4.904;2022-11-20T03:09:11;4.70;99.90
11840;DHT22;5979;50.800;4.904;2022-11-20T03:11:36;4.70;99.90
11840;DHT22;5979;50.800;4.904;2022-11-20T03:14:03;4.70;99.90
11840;DHT22;5979;50.800;4.904;2022-11-20T03:16:31;4.70;99.90
11840;DHT22;5979;50.800;4.904;2022-11-20T03:18:58;4.70;99.90
11840;DHT22;5979;50.800;4.904;2022-11-20T03:21:23;4.60;99.90
11840;DHT22;5979;50.800;4.904;2022-11-20T03:23:49;4.60;99.90
11840;DHT22;5979;50.800;4.904;2022-11-20T03:26:20;4.60;99.90
11840;DHT22;5979;50.800;4.904;2022-11-20T03:28:51;4.70;99.90
11840;DHT22;5979;50.800;4.904;2022-11-20T03:31:20;4.70;99.90
11840;DHT22;5979;50.800;4.904;2022-11-20T03:33:46;4.70;99.90
11840;DHT22;5979;50.800;4.904;2022-11-20T03:36:13;4.70;99.90
11840;DHT22;5979;50.800;4.904;2022-11-20T03:38:39;4.70;99.90
11840;DHT22;5979;50.800;4.904;2022-11-20T03:41:08;4.60;99.90
11840;DHT22;5979;50.800;4.904;2022-11-20T03:43:34;4.60;99.90
11840;DHT22;5979;50.800;4.904;2022-11-20T03:46:00;4.60;99.90
11840;DHT22;5979;50.800;4.904;2022-11-20T03:48:26;4.70;99.90
11840;DHT22;5979;50.800;4.904;2022-11-20T03:50:53;4.70;99.90
11840;DHT22;5979;50.800;4.904;2022-11-20T03:53:31;4.70;99.90
11840;DHT22;5979;50.800;4.904;2022-11-20T03:55:56;4.70;99.90
11840;DHT22;5979;50.800;4.904;2022-11-20T03:58:22;4.80;99.90
11840;DHT22;5979;50.800;4.904;2022-11-20T04:00:48;4.80;99.90
11840;DHT22;5979;50.800;4.904;2022-11-20T04:03:13;4.80;99.90
11840;DHT22;5979;50.800;4.904;2022-11-20T04:05:39;4.80;99.90
11840;DHT22;5979;50.800;4.904;2022-11-20T04:08:05;4.80;99.90
11840;DHT22;5979;50.800;4.904;2022-11-20T04:10:30;4.80;99.90
11840;DHT22;5979;50.800;4.904;2022-11-20T04:12:56;4.80;99.90
11840;DHT22;5979;50.800;4.904;2022-11-20T04:15:22;4.80;99.90
11840;DHT22;5979;50.800;4.904;2022-11-20T04:17:47;4.80;99.90
11840;DHT22;5979;50.800;4.904;2022-11-20T04:20:13;4.80;99.90
11840;DHT22;5979;50.800;4.904;2022-11-20T04:22:39;4.80;99.90
11840;DHT22;5979;50.800;4.904;2022-11-20T04:25:05;4.80;99.90
11840;DHT22;5979;50.800;4.904;2022-11-20T04:27:31;4.80;99.90
11840;DHT22;5979;50.800;4.904;2022-11-20T04:29:57;4.80;99.90
11840;DHT22;5979;50.800;4.904;2022-11-20T04:32:22;4.80;99.90
11840;DHT22;5979;50.800;4.904;2022-11-20T04:34:48;4.80;99.90
11840;DHT22;5979;50.800;4.904;2022-11-20T04:37:13;4.80;99.90
11840;DHT22;5979;50.800;4.904;2022-11-20T04:39:39;4.80;99.90
11840;DHT22;5979;50.800;4.904;2022-11-20T04:42:05;4.80;99.90
11840;DHT22;5979;50.800;4.904;2022-11-20T04:44:49;4.80;99.90
11840;DHT22;5979;50.800;4.904;2022-11-20T04:47:14;4.80;99.90
11840;DHT22;5979;50.800;4.904;2022-11-20T04:49:40;4.70;99.90
11840;DHT22;5979;50.800;4.904;2022-11-20T04:52:05;4.70;99.90
11840;DHT22;5979;50.800;4.904;2022-11-20T04:54:31;4.70;99.90
11840;DHT22;5979;50.800;4.904;2022-11-20T04:56:57;4.70;99.90
11840;DHT22;5979;50.800;4.904;2022-11-20T04:59:22;4.70;99.90
11840;DHT22;5979;50.800;4.904;2022-11-20T05:01:48;4.70;99.90
11840;DHT22;5979;50.800;4.904;2022-11-20T05:04:13;4.70;99.90
11840;DHT22;5979;50.800;4.904;2022-11-20T05:06:39;4.70;99.90
11840;DHT22;5979;50.800;4.904;2022-11-20T05:09:05;4.70;99.90
11840;DHT22;5979;50.800;4.904;2022-11-20T05:11:31;4.70;99.90
11840;DHT22;5979;50.800;4.904;2022-11-20T05:13:58;4.70;99.90
11840;DHT22;5979;50.800;4.904;2022-11-20T05:16:25;4.70;99.90
11840;DHT22;5979;50.800;4.904;2022-11-20T05:18:52;4.70;99.90
11840;DHT22;5979;50.800;4.904;2022-11-20T05:21:18;4.70;99.90
11840;DHT22;5979;50.800;4.904;2022-11-20T05:23:45;4.60;99.90
11840;DHT22;5979;50.800;4.904;2022-11-20T05:26:22;4.60;99.90
11840;DHT22;5979;50.800;4.904;2022-11-20T05:28:48;4.60;99.90
11840;DHT22;5979;50.800;4.904;2022-11-20T05:31:17;4.60;99.90
11840;DHT22;5979;50.800;4.904;2022-11-20T05:33:44;4.60;99.90
11840;DHT22;5979;50.800;4.904;2022-11-20T05:36:12;4.60;99.90
11840;DHT22;5979;50.800;4.904;2022-11-20T05:38:38;4.70;99.90
11840;DHT22;5979;50.800;4.904;2022-11-20T05:41:06;4.70;99.90
11840;DHT22;5979;50.800;4.904;2022-11-20T05:43:36;4.70;99.90
11840;DHT22;5979;50.800;4.904;2022-11-20T05:46:03;4.80;99.90
11840;DHT22;5979;50.800;4.904;2022-11-20T05:48:29;4.80;99.90
11840;DHT22;5979;50.800;4.904;2022-11-20T05:50:57;4.90;99.90
11840;DHT22;5979;50.800;4.904;2022-11-20T05:53:24;4.90;99.90
11840;DHT22;5979;50.800;4.904;2022-11-20T05:56:00;4.90;99.90
11840;DHT22;5979;50.800;4.904;2022-11-20T05:58:26;4.90;99.90
11840;DHT22;5979;50.800;4.904;2022-11-20T06:00:52;4.90;99.90
11840;DHT22;5979;50.800;4.904;2022-11-20T06:03:18;4.90;99.90
11840;DHT22;5979;50.800;4.904;2022-11-20T06:05:43;4.90;99.90
11840;DHT22;5979;50.800;4.904;2022-11-20T06:08:09;5.00;99.90
11840;DHT22;5979;50.800;4.904;2022-11-20T06:10:34;5.00;99.90
11840;DHT22;5979;50.800;4.904;2022-11-20T06:13:00;5.00;99.90
11840;DHT22;5979;50.800;4.904;2022-11-20T06:15:26;5.00;99.90
11840;DHT22;5979;50.800;4.904;2022-11-20T06:17:52;5.10;99.90
11840;DHT22;5979;50.800;4.904;2022-11-20T06:20:19;5.10;99.90
11840;DHT22;5979;50.800;4.904;2022-11-20T06:22:45;5.10;99.90
11840;DHT22;5979;50.800;4.904;2022-11-20T06:25:10;5.10;99.90
11840;DHT22;5979;50.800;4.904;2022-11-20T06:27:36;5.10;99.90
11840;DHT22;5979;50.800;4.904;2022-11-20T06:30:02;5.10;99.90
11840;DHT22;5979;50.800;4.904;2022-11-20T06:32:27;5.10;99.90
11840;DHT22;5979;50.800;4.904;2022-11-20T06:34:53;5.10;99.90
11840;DHT22;5979;50.800;4.904;2022-11-20T06:37:18;5.10;99.90
11840;DHT22;5979;50.800;4.904;2022-11-20T06:39:44;5.10;99.90
11840;DHT22;5979;50.800;4.904;2022-11-20T06:42:10;5.10;99.90
11840;DHT22;5979;50.800;4.904;2022-11-20T06:44:35;5.10;99.90
11840;DHT22;5979;50.800;4.904;2022-11-20T06:47:01;5.10;99.90
11840;DHT22;5979;50.800;4.904;2022-11-20T06:49:26;5.20;99.90
11840;DHT22;5979;50.800;4.904;2022-11-20T06:51:52;5.20;99.90
11840;DHT22;5979;50.800;4.904;2022-11-20T06:54:18;5.20;99.90
11840;DHT22;5979;50.800;4.904;2022-11-20T06:56:47;5.20;99.90
11840;DHT22;5979;50.800;4.904;2022-11-20T06:59:13;5.20;99.90
11840;DHT22;5979;50.800;4.904;2022-11-20T07:01:39;5.20;99.90
11840;DHT22;5979;50.800;4.904;2022-11-20T07:04:04;5.20;99.90
11840;DHT22;5979;50.800;4.904;2022-11-20T07:06:30;5.20;99.90
11840;DHT22;5979;50.800;4.904;2022-11-20T07:08:56;5.30;99.90
11840;DHT22;5979;50.800;4.904;2022-11-20T07:11:21;5.30;99.90
11840;DHT22;5979;50.800;4.904;2022-11-20T07:13:47;5.30;99.90
11840;DHT22;5979;50.800;4.904;2022-11-20T07:16:13;5.30;99.90
11840;DHT22;5979;50.800;4.904;2022-11-20T07:18:38;5.20;99.90
11840;DHT22;5979;50.800;4.904;2022-11-20T07:21:07;5.20;99.90
11840;DHT22;5979;50.800;4.904;2022-11-20T07:23:32;5.20;99.90
11840;DHT22;5979;50.800;4.904;2022-11-20T07:26:02;5.20;99.90
11840;DHT22;5979;50.800;4.904;2022-11-20T07:28:28;5.30;99.90
11840;DHT22;5979;50.800;4.904;2022-11-20T07:30:53;5.30;99.90
11840;DHT22;5979;50.800;4.904;2022-11-20T07:33:19;5.30;99.90
11840;DHT22;5979;50.800;4.904;2022-11-20T07:35:45;5.40;99.90
11840;DHT22;5979;50.800;4.904;2022-11-20T07:38:11;5.40;99.90
11840;DHT22;5979;50.800;4.904;2022-11-20T07:40:37;5.50;99.90
11840;DHT22;5979;50.800;4.904;2022-11-20T07:43:02;5.50;99.90
11840;DHT22;5979;50.800;4.904;2022-11-20T07:45:28;5.60;99.90
11840;DHT22;5979;50.800;4.904;2022-11-20T07:47:54;5.60;99.90
11840;DHT22;5979;50.800;4.904;2022-11-20T07:50:19;5.60;99.90
11840;DHT22;5979;50.800;4.904;2022-11-20T07:52:45;5.70;99.90
11840;DHT22;5979;50.800;4.904;2022-11-20T07:55:11;5.70;99.90
11840;DHT22;5979;50.800;4.904;2022-11-20T07:57:37;5.80;99.90
11840;DHT22;5979;50.800;4.904;2022-11-20T08:00:04;5.80;99.90
11840;DHT22;5979;50.800;4.904;2022-11-20T08:02:30;5.80;99.90
11840;DHT22;5979;50.800;4.904;2022-11-20T08:04:56;5.80;99.90
11840;DHT22;5979;50.800;4.904;2022-11-20T08:07:22;5.90;99.90
11840;DHT22;5979;50.800;4.904;2022-11-20T08:09:47;5.90;99.90
11840;DHT22;5979;50.800;4.904;2022-11-20T08:12:20;6.00;99.90
11840;DHT22;5979;50.800;4.904;2022-11-20T08:15:05;6.00;99.90
11840;DHT22;5979;50.800;4.904;2022-11-20T08:17:31;6.00;99.90
11840;DHT22;5979;50.800;4.904;2022-11-20T08:19:57;6.10;99.90
11840;DHT22;5979;50.800;4.904;2022-11-20T08:22:22;6.10;99.90
11840;DHT22;5979;50.800;4.904;2022-11-20T08:24:48;6.10;99.90
11840;DHT22;5979;50.800;4.904;2022-11-20T08:27:14;6.10;99.90
11840;DHT22;5979;50.800;4.904;2022-11-20T08:29:40;6.10;99.90
11840;DHT22;5979;50.800;4.904;2022-11-20T08:32:05;6.10;99.90
11840;DHT22;5979;50.800;4.904;2022-11-20T08:34:31;6.20;99.90
11840;DHT22;5979;50.800;4.904;2022-11-20T08:36:56;6.20;99.90
11840;DHT22;5979;50.800;4.904;2022-11-20T08:39:22;6.20;99.90
11840;DHT22;5979;50.800;4.904;2022-11-20T08:41:48;6.30;99.90
11840;DHT22;5979;50.800;4.904;2022-11-20T08:44:13;6.30;99.90
11840;DHT22;5979;50.800;4.904;2022-11-20T08:46:40;6.40;99.90
11840;DHT22;5979;50.800;4.904;2022-11-20T08:49:09;6.40;99.90
11840;DHT22;5979;50.800;4.904;2022-11-20T08:51:36;6.40;99.90
11840;DHT22;5979;50.800;4.904;2022-11-20T08:54:02;6.40;99.90
11840;DHT22;5979;50.800;4.904;2022-11-20T08:56:27;6.40;99.90
11840;DHT22;5979;50.800;4.904;2022-11-20T08:58:53;6.40;99.90
11840;DHT22;5979;50.800;4.904;2022-11-20T09:01:20;6.40;99.90
11840;DHT22;5979;50.800;4.904;2022-11-20T09:03:47;6.40;99.90
11840;DHT22;5979;50.800;4.904;2022-11-20T09:06:13;6.30;99.90
11840;DHT22;5979;50.800;4.904;2022-11-20T09:08:39;6.40;99.90
11840;DHT22;5979;50.800;4.904;2022-11-20T09:11:05;6.40;99.90
11840;DHT22;5979;50.800;4.904;2022-11-20T09:13:32;6.40;99.90
11840;DHT22;5979;50.800;4.904;2022-11-20T09:16:02;6.40;99.90
11840;DHT22;5979;50.800;4.904;2022-11-20T09:18:29;6.50;99.90
11840;DHT22;5979;50.800;4.904;2022-11-20T09:21:01;6.60;99.90
11840;DHT22;5979;50.800;4.904;2022-11-20T09:23:27;6.60;99.90
11840;DHT22;5979;50.800;4.904;2022-11-20T09:25:53;6.60;99.90
11840;DHT22;5979;50.800;4.904;2022-11-20T09:28:21;6.70;99.90
11840;DHT22;5979;50.800;4.904;2022-11-20T09:30:47;6.80;99.90
11840;DHT22;5979;50.800;4.904;2022-11-20T09:33:12;6.80;99.90
11840;DHT22;5979;50.800;4.904;2022-11-20T09:35:38;6.80;99.90
11840;DHT22;5979;50.800;4.904;2022-11-20T09:38:07;6.80;99.90
11840;DHT22;5979;50.800;4.904;2022-11-20T09:40:34;6.90;99.90
11840;DHT22;5979;50.800;4.904;2022-11-20T09:43:27;7.00;99.90
11840;DHT22;5979;50.800;4.904;2022-11-20T09:49:23;7.20;99.90
11840;DHT22;5979;50.800;4.904;2022-11-20T09:54:50;7.40;99.90
11840;DHT22;5979;50.800;4.904;2022-11-20T09:57:20;7.50;99.90
11840;DHT22;5979;50.800;4.904;2022-11-20T09:59:59;7.60;99.90
11840;DHT22;5979;50.800;4.904;2022-11-20T10:10:43;8.10;99.90
11840;DHT22;5979;50.800;4.904;2022-11-20T10:30:06;8.40;99.90
11840;DHT22;5979;50.800;4.904;2022-11-20T10:32:39;8.50;99.90
11840;DHT22;5979;50.800;4.904;2022-11-20T10:35:38;8.50;99.90
11840;DHT22;5979;50.800;4.904;2022-11-20T10:38:14;8.50;99.90
11840;DHT22;5979;50.800;4.904;2022-11-20T10:40:44;8.50;99.90
11840;DHT22;5979;50.800;4.904;2022-11-20T10:43:21;8.50;99.90
11840;DHT22;5979;50.800;4.904;2022-11-20T10:45:57;8.60;99.90
11840;DHT22;5979;50.800;4.904;2022-11-20T10:48:27;8.50;99.90
11840;DHT22;5979;50.800;4.904;2022-11-20T10:53:44;8.60;99.90
11840;DHT22;5979;50.800;4.904;2022-11-20T11:01:51;8.80;99.90
11840;DHT22;5979;50.800;4.904;2022-11-20T11:06:49;8.80;99.90
11840;DHT22;5979;50.800;4.904;2022-11-20T11:09:24;8.80;99.90
11840;DHT22;5979;50.800;4.904;2022-11-20T11:11:53;8.80;99.90
11840;DHT22;5979;50.800;4.904;2022-11-20T11:14:18;8.80;99.90
11840;DHT22;5979;50.800;4.904;2022-11-20T11:16:56;8.80;99.90
11840;DHT22;5979;50.800;4.904;2022-11-20T11:19:22;8.80;99.90
11840;DHT22;5979;50.800;4.904;2022-11-20T11:21:57;8.90;99.90
11840;DHT22;5979;50.800;4.904;2022-11-20T11:24:24;8.90;99.90
11840;DHT22;5979;50.800;4.904;2022-11-20T11:26:58;9.00;99.90
11840;DHT22;5979;50.800;4.904;2022-11-20T11:29:25;9.00;99.90
11840;DHT22;5979;50.800;4.904;2022-11-20T11:32:20;9.10;99.90
11840;DHT22;5979;50.800;4.904;2022-11-20T11:35:04;9.10;99.90
11840;DHT22;5979;50.800;4.904;2022-11-20T11:37:34;9.20;99.90
11840;DHT22;5979;50.800;4.904;2022-11-20T11:40:02;9.20;99.90
11840;DHT22;5979;50.800;4.904;2022-11-20T11:42:28;9.20;99.90
11840;DHT22;5979;50.800;4.904;2022-11-20T11:44:58;9.20;99.90
11840;DHT22;5979;50.800;4.904;2022-11-20T11:52:51;9.30;99.90
11840;DHT22;5979;50.800;4.904;2022-11-20T11:55:31;9.30;99.90
11840;DHT22;5979;50.800;4.904;2022-11-20T11:58:17;9.30;99.90
11840;DHT22;5979;50.800;4.904;2022-11-20T12:00:55;9.20;99.90
11840;DHT22;5979;50.800;4.904;2022-11-20T12:03:30;9.30;99.90
11840;DHT22;5979;50.800;4.904;2022-11-20T12:11:43;9.30;99.90
11840;DHT22;5979;50.800;4.904;2022-11-20T12:16:38;9.40;99.90
11840;DHT22;5979;50.800;4.904;2022-11-20T12:19:10;9.30;99.90
11840;DHT22;5979;50.800;4.904;2022-11-20T12:27:40;9.30;99.90
11840;DHT22;5979;50.800;4.904;2022-11-20T12:30:16;9.30;99.90
11840;DHT22;5979;50.800;4.904;2022-11-20T12:50:29;8.80;99.90
11840;DHT22;5979;50.800;4.904;2022-11-20T12:58:38;8.60;99.90
11840;DHT22;5979;50.800;4.904;2022-11-20T13:04:03;8.60;99.90
11840;DHT22;5979;50.800;4.904;2022-11-20T13:06:32;8.60;99.90
11840;DHT22;5979;50.800;4.904;2022-11-20T13:08:59;8.50;99.90
11840;DHT22;5979;50.800;4.904;2022-11-20T13:14:26;8.50;99.90
11840;DHT22;5979;50.800;4.904;2022-11-20T13:17:15;8.50;99.90
11840;DHT22;5979;50.800;4.904;2022-11-20T13:19:48;8.50;99.90
11840;DHT22;5979;50.800;4.904;2022-11-20T13:22:28;8.50;99.90
11840;DHT22;5979;50.800;4.904;2022-11-20T13:24:54;8.40;99.90
11840;DHT22;5979;50.800;4.904;2022-11-20T13:27:21;8.40;99.90
11840;DHT22;5979;50.800;4.904;2022-11-20T13:30:13;8.40;99.90
11840;DHT22;5979;50.800;4.904;2022-11-20T13:32:54;8.50;99.90
11840;DHT22;5979;50.800;4.904;2022-11-20T13:38:05;8.40;99.90
11840;DHT22;5979;50.800;4.904;2022-11-20T13:40:31;8.40;99.90
11840;DHT22;5979;50.800;4.904;2022-11-20T13:43:38;8.40;99.90
11840;DHT22;5979;50.800;4.904;2022-11-20T13:46:08;8.40;99.90
11840;DHT22;5979;50.800;4.904;2022-11-20T13:54:14;8.50;99.90
11840;DHT22;5979;50.800;4.904;2022-11-20T13:57:13;8.40;99.90
11840;DHT22;5979;50.800;4.904;2022-11-20T13:59:58;8.40;99.90
11840;DHT22;5979;50.800;4.904;2022-11-20T14:02:26;8.40;99.90
11840;DHT22;5979;50.800;4.904;2022-11-20T14:04:54;8.30;99.90
11840;DHT22;5979;50.800;4.904;2022-11-20T14:07:25;8.30;99.90
11840;DHT22;5979;50.800;4.904;2022-11-20T14:09:52;8.30;99.90
11840;DHT22;5979;50.800;4.904;2022-11-20T14:12:27;8.30;99.90
11840;DHT22;5979;50.800;4.904;2022-11-20T14:14:54;8.30;99.90
11840;DHT22;5979;50.800;4.904;2022-11-20T14:17:43;8.30;99.90
11840;DHT22;5979;50.800;4.904;2022-11-20T14:20:13;8.30;99.90
11840;DHT22;5979;50.800;4.904;2022-11-20T14:22:48;8.30;99.90
11840;DHT22;5979;50.800;4.904;2022-11-20T14:27:54;8.30;99.90
11840;DHT22;5979;50.800;4.904;2022-11-20T14:30:26;8.30;99.90
11840;DHT22;5979;50.800;4.904;2022-11-20T14:32:54;8.30;99.90
11840;DHT22;5979;50.800;4.904;2022-11-20T14:35:24;8.20;99.90
11840;DHT22;5979;50.800;4.904;2022-11-20T14:37:51;8.20;99.90
11840;DHT22;5979;50.800;4.904;2022-11-20T14:40:31;8.30;99.90
11840;DHT22;5979;50.800;4.904;2022-11-20T14:42:58;8.20;99.90
11840;DHT22;5979;50.800;4.904;2022-11-20T14:45:25;8.20;99.90
11840;DHT22;5979;50.800;4.904;2022-11-20T14:47:53;8.20;99.90
11840;DHT22;5979;50.800;4.904;2022-11-20T14:50:26;8.20;99.90
11840;DHT22;5979;50.800;4.904;2022-11-20T14:52:53;8.20;99.90
11840;DHT22;5979;50.800;4.904;2022-11-20T14:55:34;8.10;99.90
11840;DHT22;5979;50.800;4.904;2022-11-20T14:58:21;8.10;99.90
11840;DHT22;5979;50.800;4.904;2022-11-20T15:00:59;8.10;99.90
11840;DHT22;5979;50.800;4.904;2022-11-20T15:03:39;8.10;99.90
11840;DHT22;5979;50.800;4.904;2022-11-20T15:06:07;8.10;99.90
11840;DHT22;5979;50.800;4.904;2022-11-20T15:08:34;8.00;99.90
11840;DHT22;5979;50.800;4.904;2022-11-20T15:11:00;8.00;99.90
11840;DHT22;5979;50.800;4.904;2022-11-20T15:13:30;8.00;99.90
11840;DHT22;5979;50.800;4.904;2022-11-20T15:15:58;8.00;99.90
11840;DHT22;5979;50.800;4.904;2022-11-20T15:18:31;8.10;99.90
11840;DHT22;5979;50.800;4.904;2022-11-20T15:21:00;8.10;99.90
11840;DHT22;5979;50.800;4.904;2022-11-20T15:23:27;8.10;99.90
11840;DHT22;5979;50.800;4.904;2022-11-20T15:25:53;8.10;99.90
11840;DHT22;5979;50.800;4.904;2022-11-20T15:28:31;8.10;99.90
11840;DHT22;5979;50.800;4.904;2022-11-20T15:30:58;8.10;99.90
11840;DHT22;5979;50.800;4.904;2022-11-20T15:33:24;8.10;99.90
11840;DHT22;5979;50.800;4.904;2022-11-20T15:35:49;8.10;99.90
11840;DHT22;5979;50.800;4.904;2022-11-20T15:38:15;8.20;99.90
11840;DHT22;5979;50.800;4.904;2022-11-20T15:40:41;8.20;99.90
11840;DHT22;5979;50.800;4.904;2022-11-20T15:43:07;8.20;99.90
11840;DHT22;5979;50.800;4.904;2022-11-20T15:45:43;8.20;99.90
11840;DHT22;5979;50.800;4.904;2022-11-20T15:48:13;8.20;99.90
11840;DHT22;5979;50.800;4.904;2022-11-20T15:50:54;8.20;99.90
11840;DHT22;5979;50.800;4.904;2022-11-20T15:53:21;8.30;99.90
11840;DHT22;5979;50.800;4.904;2022-11-20T15:55:47;8.30;99.90
11840;DHT22;5979;50.800;4.904;2022-11-20T15:58:13;8.30;99.90
11840;DHT22;5979;50.800;4.904;2022-11-20T16:00:39;8.30;99.90
11840;DHT22;5979;50.800;4.904;2022-11-20T16:03:04;8.30;99.90
11840;DHT22;5979;50.800;4.904;2022-11-20T16:05:31;8.30;99.90
11840;DHT22;5979;50.800;4.904;2022-11-20T16:07:56;8.40;99.90
11840;DHT22;5979;50.800;4.904;2022-11-20T16:10:22;8.40;99.90
11840;DHT22;5979;50.800;4.904;2022-11-20T16:12:49;8.40;99.90
11840;DHT22;5979;50.800;4.904;2022-11-20T16:15:33;8.40;99.90
11840;DHT22;5979;50.800;4.904;2022-11-20T16:18:14;8.40;99.90
11840;DHT22;5979;50.800;4.904;2022-11-20T16:20:39;8.40;99.90
11840;DHT22;5979;50.800;4.904;2022-11-20T16:23:06;8.40;99.90
11840;DHT22;5979;50.800;4.904;2022-11-20T16:25:32;8.40;99.90
11840;DHT22;5979;50.800;4.904;2022-11-20T16:27:58;8.40;99.90
11840;DHT22;5979;50.800;4.904;2022-11-20T16:30:24;8.30;99.90
11840;DHT22;5979;50.800;4.904;2022-11-20T16:32:49;8.30;99.90
11840;DHT22;5979;50.800;4.904;2022-11-20T16:35:15;8.30;99.90
11840;DHT22;5979;50.800;4.904;2022-11-20T16:37:41;8.30;99.90
11840;DHT22;5979;50.800;4.904;2022-11-20T16:40:09;8.30;99.90
11840;DHT22;5979;50.800;4.904;2022-11-20T16:42:36;8.30;99.90
11840;DHT22;5979;50.800;4.904;2022-11-20T16:45:02;8.30;99.90
11840;DHT22;5979;50.800;4.904;2022-11-20T16:47:28;8.30;99.90
11840;DHT22;5979;50.800;4.904;2022-11-20T16:49:53;8.30;99.90
11840;DHT22;5979;50.800;4.904;2022-11-20T16:52:19;8.20;99.90
11840;DHT22;5979;50.800;4.904;2022-11-20T16:54:45;8.20;99.90
11840;DHT22;5979;50.800;4.904;2022-11-20T16:57:10;8.20;99.90
11840;DHT22;5979;50.800;4.904;2022-11-20T16:59:36;8.10;99.90
11840;DHT22;5979;50.800;4.904;2022-11-20T17:02:02;8.10;99.90
11840;DHT22;5979;50.800;4.904;2022-11-20T17:04:28;8.10;99.90
11840;DHT22;5979;50.800;4.904;2022-11-20T17:06:53;8.10;99.90
11840;DHT22;5979;50.800;4.904;2022-11-20T17:09:19;8.10;99.90
11840;DHT22;5979;50.800;4.904;2022-11-20T17:11:45;8.10;99.90
11840;DHT22;5979;50.800;4.904;2022-11-20T17:14:10;8.10;99.90
11840;DHT22;5979;50.800;4.904;2022-11-20T17:16:36;8.20;99.90
11840;DHT22;5979;50.800;4.904;2022-11-20T17:19:03;8.20;99.90
11840;DHT22;5979;50.800;4.904;2022-11-20T17:21:31;8.30;99.90
11840;DHT22;5979;50.800;4.904;2022-11-20T17:24:04;8.30;99.90
11840;DHT22;5979;50.800;4.904;2022-11-20T17:26:31;8.30;99.90
11840;DHT22;5979;50.800;4.904;2022-11-20T17:29:02;8.30;99.90
11840;DHT22;5979;50.800;4.904;2022-11-20T17:31:29;8.40;99.90
11840;DHT22;5979;50.800;4.904;2022-11-20T17:33:56;8.40;99.90
11840;DHT22;5979;50.800;4.904;2022-11-20T17:36:24;8.40;99.90
11840;DHT22;5979;50.800;4.904;2022-11-20T17:38:49;8.40;99.90
11840;DHT22;5979;50.800;4.904;2022-11-20T17:41:20;8.40;99.90
11840;DHT22;5979;50.800;4.904;2022-11-20T17:43:47;8.40;99.90
11840;DHT22;5979;50.800;4.904;2022-11-20T17:46:18;8.40;99.90
11840;DHT22;5979;50.800;4.904;2022-11-20T17:48:45;8.40;99.90
11840;DHT22;5979;50.800;4.904;2022-11-20T17:51:13;8.40;99.90
11840;DHT22;5979;50.800;4.904;2022-11-20T17:53:41;8.40;99.90
11840;DHT22;5979;50.800;4.904;2022-11-20T17:56:07;8.40;99.90
11840;DHT22;5979;50.800;4.904;2022-11-20T17:58:52;8.40;99.90
11840;DHT22;5979;50.800;4.904;2022-11-20T18:01:18;8.30;99.90
11840;DHT22;5979;50.800;4.904;2022-11-20T18:03:44;8.20;99.90
11840;DHT22;5979;50.800;4.904;2022-11-20T18:08:37;8.00;99.90